Home   Weather   Germany   Gaggenau   Past weeks
Flag for Germany

Past Weather in Gaggenau, Baden-Württemberg, Germany — Yesterday and Last 2 Weeks

Currently: 61 °F. Mostly cloudy. (Weather station: Karlsruhe - Baden Wurttemberg, Germany). See more current weather

Past Weather in Gaggenau — Graph

°F

Gaggenau Temperature Yesterday

Maximum temperature yesterday: 73 °F (at 2:50 pm)
Minimum temperature yesterday: 61 °F (at 4:20 am)
Average temperature yesterday: 68 °F

High & Low Weather Summary for the Past Weeks

 TemperatureHumidityPressure
High81 °F (Jul 18, 5:50 pm)100% (Jul 18, 1:50 am)30.21 "Hg (Jul 18, 1:50 am)
Low54 °F (Jul 30, 6:20 am)44% (Jul 29, 2:50 pm)29.12 "Hg (Jul 25, 2:20 am)
Average69 °F72%29.98 "Hg
* Reported Jul 17 2:20 am — Aug 1 2:50 am, Gaggenau. Weather by CustomWeather, © 2021

Note: Actual official high and low records may vary slightly from our data, if they occured in-between our weather recording intervals... More about our weather records

Gaggenau Weather History for the Previous 24 Hours

Scroll right to see more
 ConditionsComfort  
Time TempWeatherWind HumidityBarometerVisibility
2:50 am
Sun, Aug 1
61 °FPassing clouds.3 mph88%29.83 "HgN/A
1:20 am63 °FMostly cloudy.5 mph83%29.86 "HgN/A
12:50 am64 °FPartly cloudy.3 mph78%29.86 "HgN/A
12:20 am64 °FOvercast.3 mph78%29.86 "HgN/A
11:50 pm
Sat, Jul 31
64 °FOvercast.5 mph78%29.86 "HgN/A
11:20 pm64 °FClear.3 mph78%29.83 "Hg10 mi
10:50 pm64 °FClear.2 mph83%29.83 "Hg10 mi
10:20 pm66 °FClear.No wind68%29.86 "Hg10 mi
9:50 pm66 °FClear.No wind68%29.86 "Hg10 mi
9:20 pm66 °FClear.No wind68%29.86 "Hg10 mi
8:50 pm68 °FSunny.No wind64%29.86 "Hg10 mi
8:20 pm70 °FSunny.1 mph60%29.86 "Hg10 mi
7:50 pm72 °FPassing clouds.5 mph53%29.86 "HgN/A
7:20 pm72 °FPassing clouds.5 mph57%29.86 "HgN/A
6:50 pm72 °FPassing clouds.6 mph57%29.86 "HgN/A
6:20 pm73 °FPassing clouds.6 mph53%29.86 "HgN/A
5:50 pm73 °FPassing clouds.6 mph50%29.86 "HgN/A
5:20 pm73 °FPassing clouds.5 mph50%29.86 "HgN/A
4:50 pm73 °FPassing clouds.6 mph50%29.86 "HgN/A
4:20 pm73 °FPassing clouds.5 mph50%29.86 "HgN/A
3:50 pm73 °FPassing clouds.6 mph50%29.86 "HgN/A
3:20 pm73 °FPassing clouds.6 mph50%29.86 "HgN/A
2:50 pm73 °FPassing clouds.7 mph50%29.89 "HgN/A
2:20 pm72 °FPassing clouds.6 mph53%29.89 "HgN/A
1:50 pm72 °FPassing clouds.7 mph53%29.89 "HgN/A
1:20 pm70 °FPassing clouds.6 mph57%29.89 "HgN/A
12:50 pm70 °FPassing clouds.6 mph57%29.89 "HgN/A
12:20 pm72 °FPassing clouds.10 mph53%29.89 "HgN/A
11:50 am72 °FPassing clouds.8 mph53%29.89 "HgN/A
11:20 am72 °FPassing clouds.10 mph50%29.89 "HgN/A
10:50 am70 °FPassing clouds.10 mph53%29.89 "HgN/A
10:20 am70 °FPassing clouds.9 mph60%29.89 "HgN/A
9:50 am68 °FPassing clouds.9 mph64%29.89 "HgN/A
9:20 am68 °FSunny.8 mph64%29.89 "Hg10 mi
8:50 am66 °FSunny.7 mph64%29.89 "Hg10 mi
8:20 am64 °FPassing clouds.6 mph68%29.89 "HgN/A
7:50 am64 °FPassing clouds.6 mph68%29.89 "HgN/A
7:20 am63 °FPassing clouds.6 mph68%29.89 "HgN/A
6:50 am61 °FPassing clouds.5 mph68%29.89 "HgN/A
6:20 am61 °FSunny.6 mph68%29.89 "Hg10 mi
5:50 am61 °FClear.6 mph68%29.89 "Hg10 mi
5:20 am61 °FClear.6 mph68%29.89 "Hg10 mi
4:50 am61 °FPassing clouds.6 mph68%29.89 "HgN/A
4:20 am61 °FClear.7 mph72%29.89 "Hg10 mi
3:50 am64 °FClear.8 mph64%29.89 "Hg10 mi
3:20 am64 °FPassing clouds.6 mph64%29.89 "HgN/A
Weather by CustomWeather, © 2021

See weather overview